Time;durP1;ratioP1;P1;durP2;ratioP2;P2;SDS_P1;SDS_P2;PMS_P1;PMS_P2;Temp;Humidity;BMP_temperature;BMP_pressure;BME280_temperature;BME280_humidity;BME280_pressure;Samples;Min_cycle;Max_cycle;Signal;HPM_P1;HPM_P2
2022/08/21 00:03:01;;;;;;;9.78;8.88;;;;;;;19.91;87.46;99814.55;2108296;84;21054;-88
2022/08/21 00:06:02;;;;;;;9.85;8.88;;;;;;;19.92;87.53;99810.80;2092037;84;21535;-89
2022/08/21 00:09:07;;;;;;;10.30;9.23;;;;;;;19.93;87.59;99805.19;2100745;83;21057;-90
2022/08/21 00:12:09;;;;;;;9.95;8.93;;;;;;;19.90;87.83;99788.13;2104664;83;21055;-91
2022/08/21 00:15:15;;;;;;;8.83;7.92;;;;;;;19.84;87.76;99776.15;2081775;83;21049;-91
2022/08/21 00:18:17;;;;;;;10.40;8.33;;;;;;;19.76;87.90;99774.63;2111352;83;21057;-91
2022/08/21 00:21:18;;;;;;;8.40;7.60;;;;;;;19.69;87.99;99786.88;2118563;83;20998;-92
2022/08/21 00:24:21;;;;;;;7.90;7.10;;;;;;;19.65;88.08;99791.09;2118408;84;21499;-89
2022/08/21 00:27:22;;;;;;;8.60;6.83;;;;;;;19.65;88.17;99783.02;2116472;83;21061;-90
2022/08/21 00:30:26;;;;;;;10.08;7.17;;;;;;;19.64;88.43;99789.94;2113314;83;21109;-90
2022/08/21 00:33:27;;;;;;;7.85;6.97;;;;;;;19.60;88.35;99796.33;2114374;84;21348;-89
2022/08/21 00:36:29;;;;;;;7.08;6.37;;;;;;;19.57;88.69;99799.48;2120569;83;21530;-88
2022/08/21 00:39:30;;;;;;;7.78;6.55;;;;;;;19.53;88.69;99794.80;2116335;83;21533;-90
2022/08/21 00:42:31;;;;;;;7.67;6.97;;;;;;;19.51;88.71;99797.70;2109356;83;21021;-90
2022/08/21 00:45:33;;;;;;;6.95;6.28;;;;;;;19.51;88.84;99792.32;2112444;84;21049;-89
2022/08/21 00:48:35;;;;;;;9.15;7.22;;;;;;;19.49;88.98;99793.10;2110046;84;21056;-89
2022/08/21 00:51:48;;;;;;;9.73;6.40;;;;;;;19.47;88.85;99785.25;2118122;84;21033;-89
2022/08/21 00:54:51;;;;;;;7.90;6.72;;;;;;;19.47;88.94;99785.25;2122908;82;21021;-91
2022/08/21 00:57:55;;;;;;;7.50;6.22;;;;;;;19.47;88.93;99784.44;2084773;84;21009;-90
2022/08/21 01:00:57;;;;;;;6.80;6.20;;;;;;;19.47;89.04;99774.48;2082491;84;21085;-91
2022/08/21 01:03:59;;;;;;;7.65;6.83;;;;;;;19.47;89.12;99780.40;2120990;82;21025;-90
2022/08/21 01:07:02;;;;;;;7.92;6.28;;;;;;;19.46;89.16;99774.73;2105449;83;21021;-89
2022/08/21 01:10:05;;;;;;;7.08;6.37;;;;;;;19.45;89.25;99773.89;2085930;84;21056;-92
2022/08/21 01:13:09;;;;;;;10.43;7.00;;;;;;;19.46;89.30;99770.70;2088408;83;21026;-90
2022/08/21 01:16:14;;;;;;;7.55;6.85;;;;;;;19.45;89.37;99771.73;2084280;84;21082;-91
2022/08/21 01:19:16;;;;;;;8.63;6.90;;;;;;;19.42;89.29;99766.29;2085336;84;21051;-89
2022/08/21 01:22:19;;;;;;;8.20;7.40;;;;;;;19.42;89.35;99766.82;2060050;83;21582;-89
2022/08/21 01:25:20;;;;;;;7.67;6.97;;;;;;;19.42;89.44;99764.13;2116753;82;21073;-89
2022/08/21 01:28:22;;;;;;;9.85;7.47;;;;;;;19.41;89.53;99757.13;2086486;83;21048;-91
2022/08/21 01:31:25;;;;;;;7.83;6.95;;;;;;;19.43;89.64;99734.85;2111863;83;21024;-91
2022/08/21 01:34:26;;;;;;;8.33;7.53;;;;;;;19.39;89.74;99717.52;2108232;82;21045;-90
2022/08/21 01:37:27;;;;;;;8.08;7.25;;;;;;;19.33;89.71;99696.95;2108240;84;21595;-89
2022/08/21 01:40:29;;;;;;;7.50;6.78;;;;;;;19.26;89.85;99690.34;2103715;82;21032;-91
2022/08/21 01:43:30;;;;;;;9.18;7.22;;;;;;;19.24;90.01;99677.12;2107136;83;21046;-91
2022/08/21 01:46:31;;;;;;;8.93;6.30;;;;;;;19.19;90.25;99685.06;2113698;82;21026;-90
2022/08/21 01:49:41;;;;;;;8.43;6.20;;;;;;;19.17;90.20;99699.80;2110388;82;20985;-92
2022/08/21 01:52:42;;;;;;;7.55;6.55;;;;;;;19.16;90.33;99698.98;2096922;82;21034;-92
2022/08/21 01:55:44;;;;;;;7.97;5.83;;;;;;;19.15;90.51;99685.25;2056948;85;21548;-93
2022/08/21 01:58:47;;;;;;;6.78;6.12;;;;;;;19.15;90.51;99689.82;2080705;84;21046;-90
2022/08/21 02:01:48;;;;;;;6.40;5.80;;;;;;;19.12;90.85;99691.10;2087425;84;21627;-91
2022/08/21 02:04:49;;;;;;;8.45;5.92;;;;;;;19.10;90.98;99681.09;2051081;86;21073;-90
2022/08/21 02:07:53;;;;;;;6.80;6.03;;;;;;;19.07;91.09;99670.81;2127544;81;21041;-90
2022/08/21 02:10:54;;;;;;;6.58;5.97;;;;;;;19.06;91.22;99659.74;2118906;81;21034;-91
2022/08/21 02:13:55;;;;;;;11.05;6.90;;;;;;;19.04;91.27;99669.41;2110958;82;21014;-92
2022/08/21 02:16:56;;;;;;;6.20;5.60;;;;;;;19.02;91.22;99678.75;2062440;83;21050;-91
2022/08/21 02:19:57;;;;;;;5.75;5.25;;;;;;;19.02;91.31;99687.63;2117541;83;21545;-91
2022/08/21 02:22:58;;;;;;;6.12;5.53;;;;;;;19.01;91.26;99690.56;2105255;82;21070;-91
2022/08/21 02:26:02;;;;;;;5.50;5.00;;;;;;;19.01;91.29;99698.10;2097703;82;21543;-91
2022/08/21 02:29:05;;;;;;;4.58;4.17;;;;;;;19.01;91.26;99695.94;2117299;82;21002;-89
2022/08/21 02:32:06;;;;;;;6.85;4.40;;;;;;;19.00;91.22;99683.53;2126639;81;21015;-92
2022/08/21 02:35:09;;;;;;;4.55;4.15;;;;;;;18.98;91.10;99685.66;2111801;81;21072;-92
2022/08/21 02:38:15;;;;;;;4.70;4.30;;;;;;;18.96;91.12;99688.56;2108020;82;21595;-91
2022/08/21 02:41:20;;;;;;;6.22;4.30;;;;;;;18.94;91.09;99688.50;2117199;83;21010;-92
2022/08/21 02:44:21;;;;;;;5.58;3.67;;;;;;;18.93;91.10;99686.88;2103293;83;21057;-91
2022/08/21 02:47:22;;;;;;;4.85;3.10;;;;;;;18.90;91.03;99687.34;2108315;82;21510;-91
2022/08/21 02:50:29;;;;;;;3.25;3.05;;;;;;;18.85;90.99;99685.86;2104044;83;21038;-91
2022/08/21 02:53:31;;;;;;;2.98;2.77;;;;;;;18.81;90.85;99688.20;2116234;83;21031;-93
2022/08/21 02:56:32;;;;;;;2.52;2.33;;;;;;;18.77;90.73;99692.39;2109558;83;21003;-91
2022/08/21 02:59:33;;;;;;;3.00;2.80;;;;;;;18.70;90.81;99689.78;2099189;83;21069;-91
2022/08/21 03:02:34;;;;;;;5.17;3.10;;;;;;;18.66;90.67;99684.55;2106729;83;21057;-91
2022/08/21 03:05:37;;;;;;;3.80;3.15;;;;;;;18.62;90.75;99687.95;2108565;83;21006;-92
2022/08/21 03:08:38;;;;;;;3.92;3.22;;;;;;;18.51;90.50;99685.52;2123017;82;20990;-89
2022/08/21 03:11:39;;;;;;;5.17;3.05;;;;;;;18.44;90.46;99687.47;2083378;83;21192;-92
2022/08/21 03:14:40;;;;;;;5.95;3.45;;;;;;;18.35;90.50;99693.16;2128730;82;21062;-91
2022/08/21 03:17:41;;;;;;;3.65;3.20;;;;;;;18.30;90.69;99695.73;2116922;82;21042;-93
2022/08/21 03:20:44;;;;;;;3.90;3.60;;;;;;;18.25;91.26;99696.94;2113673;81;21055;-92
2022/08/21 03:23:46;;;;;;;4.40;3.98;;;;;;;18.19;90.84;99691.63;2073996;84;21089;-92
2022/08/21 03:26:47;;;;;;;4.50;4.10;;;;;;;18.15;91.11;99700.67;2074003;84;21035;-90
2022/08/21 03:29:48;;;;;;;6.47;4.12;;;;;;;18.14;91.13;99698.52;2067313;83;21055;-91
2022/08/21 03:32:50;;;;;;;5.05;3.92;;;;;;;18.12;91.20;99697.91;2126430;82;21089;-90
2022/08/21 03:36:03;;;;;;;5.33;4.12;;;;;;;18.10;91.28;99697.34;2132130;81;21021;-91
2022/08/21 03:39:04;;;;;;;4.70;4.25;;;;;;;18.10;91.24;99700.52;2102963;81;20998;-92
2022/08/21 03:42:06;;;;;;;4.37;3.98;;;;;;;18.07;91.39;99690.23;2118261;81;21024;-91
2022/08/21 03:45:08;;;;;;;4.83;4.08;;;;;;;18.04;91.35;99686.67;2115808;82;21105;-91
2022/08/21 03:48:09;;;;;;;5.22;4.72;;;;;;;18.03;91.60;99699.80;2109025;82;21035;-91
2022/08/21 03:51:10;;;;;;;5.12;4.28;;;;;;;18.01;91.40;99708.59;2072452;84;21520;-92
2022/08/21 03:54:11;;;;;;;4.37;4.08;;;;;;;18.01;91.66;99705.39;2059181;84;21086;-92
2022/08/21 03:57:13;;;;;;;4.70;4.30;;;;;;;18.02;91.56;99707.55;2129265;81;21121;-92
2022/08/21 04:00:16;;;;;;;4.40;4.00;;;;;;;18.03;91.64;99698.46;2128067;81;20988;-91
2022/08/21 04:03:19;;;;;;;4.25;3.85;;;;;;;18.07;91.81;99707.16;2099896;82;21395;-92
2022/08/21 04:06:20;;;;;;;4.55;4.15;;;;;;;18.07;91.72;99715.74;2078662;83;21557;-92
2022/08/21 04:09:22;;;;;;;4.95;4.00;;;;;;;18.07;91.68;99710.38;2114924;83;21350;-91
2022/08/21 04:12:23;;;;;;;4.22;3.83;;;;;;;18.04;91.81;99718.36;2122692;83;21090;-91
2022/08/21 04:15:25;;;;;;;3.98;3.67;;;;;;;18.03;91.71;99717.25;2141102;81;21007;-91
2022/08/21 04:18:26;;;;;;;4.42;4.03;;;;;;;18.03;91.80;99710.55;2104088;83;21090;-92
2022/08/21 04:21:28;;;;;;;4.10;3.70;;;;;;;18.00;91.82;99709.13;2094545;83;21077;-89
2022/08/21 04:24:29;;;;;;;7.15;4.00;;;;;;;17.98;92.08;99705.02;2112071;80;21139;-90
2022/08/21 04:27:30;;;;;;;4.12;3.72;;;;;;;17.97;92.04;99704.73;2107058;83;20998;-92
2022/08/21 04:30:32;;;;;;;4.17;3.40;;;;;;;17.96;92.08;99701.73;2100636;82;21078;-91
2022/08/21 04:33:33;;;;;;;3.25;2.98;;;;;;;17.92;92.16;99702.19;2122592;82;21023;-91
2022/08/21 04:36:34;;;;;;;3.60;2.60;;;;;;;17.92;92.23;99690.64;2110510;82;21037;-92
2022/08/21 04:39:35;;;;;;;3.02;2.65;;;;;;;17.87;92.29;99688.62;2119749;82;21488;-91
2022/08/21 04:42:44;;;;;;;2.87;2.67;;;;;;;17.82;92.42;99695.20;2101484;82;21066;-91
2022/08/21 04:45:48;;;;;;;3.08;2.87;;;;;;;17.77;92.91;99688.84;2103623;82;21058;-92
2022/08/21 04:48:50;;;;;;;2.90;2.70;;;;;;;17.70;92.90;99688.89;2105001;83;21021;-91
2022/08/21 04:51:51;;;;;;;3.85;3.20;;;;;;;17.68;93.32;99698.53;2058388;84;21109;-90
2022/08/21 04:54:52;;;;;;;5.20;3.27;;;;;;;17.67;93.24;99712.15;2104849;82;21086;-91
2022/08/21 04:57:55;;;;;;;3.55;3.12;;;;;;;17.64;93.13;99717.44;2078033;83;21576;-93
2022/08/21 05:00:58;;;;;;;3.40;3.08;;;;;;;17.62;93.11;99724.06;2061423;83;22230;-90
2022/08/21 05:04:04;;;;;;;3.90;3.40;;;;;;;17.60;93.38;99731.54;2065242;84;22431;-91
2022/08/21 05:07:10;;;;;;;5.53;2.80;;;;;;;17.58;93.44;99747.03;2064775;84;21504;-90
2022/08/21 05:10:13;;;;;;;2.98;2.67;;;;;;;17.58;93.84;99749.70;2052089;84;21026;-92
2022/08/21 05:13:15;;;;;;;4.15;2.65;;;;;;;17.57;94.55;99742.19;2062971;85;21026;-92
2022/08/21 05:16:17;;;;;;;3.42;2.55;;;;;;;17.53;94.38;99740.16;2066851;85;21017;-93
2022/08/21 05:19:18;;;;;;;2.90;2.70;;;;;;;17.48;94.48;99733.61;2102661;83;21091;-91
2022/08/21 05:22:22;;;;;;;3.27;2.72;;;;;;;17.43;94.89;99737.99;2120992;83;21543;-91
2022/08/21 05:25:23;;;;;;;2.90;2.70;;;;;;;17.41;94.68;99743.56;2111742;83;21045;-90
2022/08/21 05:28:24;;;;;;;3.70;2.30;;;;;;;17.39;95.04;99739.46;2127624;82;21014;-90
2022/08/21 05:31:25;;;;;;;2.90;2.60;;;;;;;17.39;94.55;99742.95;2124360;81;21639;-90
2022/08/21 05:34:26;;;;;;;2.45;2.25;;;;;;;17.39;94.91;99740.80;2105541;83;21142;-91
2022/08/21 05:37:27;;;;;;;4.58;2.85;;;;;;;17.38;94.56;99739.98;2109582;83;21602;-91
2022/08/21 05:40:28;;;;;;;3.15;2.62;;;;;;;17.38;94.99;99731.94;2132768;82;21033;-91
2022/08/21 05:43:29;;;;;;;3.35;2.37;;;;;;;17.38;94.76;99730.59;2088694;82;21189;-89
2022/08/21 05:46:30;;;;;;;2.60;2.40;;;;;;;17.37;95.42;99734.83;2121411;82;21614;-90
2022/08/21 05:49:32;;;;;;;3.85;2.45;;;;;;;17.37;94.64;99747.74;2128384;81;21108;-92
2022/08/21 05:52:33;;;;;;;2.87;2.67;;;;;;;17.38;94.85;99741.33;2130714;81;21078;-90
2022/08/21 05:55:36;;;;;;;3.42;2.40;;;;;;;17.39;95.16;99752.34;2133366;82;21112;-89
2022/08/21 05:58:37;;;;;;;2.17;2.05;;;;;;;17.38;94.85;99759.28;2094546;83;21025;-91
2022/08/21 06:01:40;;;;;;;2.52;2.33;;;;;;;17.38;94.79;99760.09;2088629;83;21007;-91
2022/08/21 06:04:41;;;;;;;2.65;2.40;;;;;;;17.36;95.08;99750.10;2077847;83;21577;-90
2022/08/21 06:07:43;;;;;;;2.15;2.02;;;;;;;17.33;95.48;99749.20;2082301;84;21980;-90
2022/08/21 06:10:46;;;;;;;2.05;1.85;;;;;;;17.30;95.26;99763.05;2135019;82;21016;-91
2022/08/21 06:13:47;;;;;;;3.98;2.35;;;;;;;17.29;95.01;99769.47;2129401;82;21115;-90
2022/08/21 06:16:48;;;;;;;2.62;2.42;;;;;;;17.29;94.98;99796.77;2139090;83;21091;-89
2022/08/21 06:19:54;;;;;;;2.30;2.10;;;;;;;17.30;94.81;99809.98;2104377;83;21154;-92
2022/08/21 06:22:55;;;;;;;2.33;2.20;;;;;;;17.28;95.02;99816.06;2122838;82;21069;-90
2022/08/21 06:25:56;;;;;;;2.60;2.40;;;;;;;17.30;94.73;99819.89;2107953;82;21041;-91
2022/08/21 06:28:58;;;;;;;2.52;2.35;;;;;;;17.31;94.97;99814.29;2099608;82;21061;-91
2022/08/21 06:31:59;;;;;;;3.95;2.33;;;;;;;17.29;94.93;99803.48;2111662;83;21027;-91
2022/08/21 06:35:00;;;;;;;2.20;2.05;;;;;;;17.25;95.18;99803.92;2061471;85;21041;-91
2022/08/21 06:38:01;;;;;;;3.05;2.35;;;;;;;17.23;94.93;99798.47;2060247;83;21022;-90
2022/08/21 06:41:03;;;;;;;3.45;2.00;;;;;;;17.21;95.20;99794.68;2093984;81;21062;-91
2022/08/21 06:44:04;;;;;;;4.55;2.70;;;;;;;17.20;95.98;99795.73;2083017;83;21021;-90
2022/08/21 06:47:05;;;;;;;2.70;2.47;;;;;;;17.18;95.36;99794.30;2078752;83;21069;-89
2022/08/21 06:50:08;;;;;;;2.60;2.40;;;;;;;17.17;95.32;99779.23;2061694;84;21540;-90
2022/08/21 06:53:13;;;;;;;4.03;2.40;;;;;;;17.17;95.34;99788.63;2056696;83;21144;-89
2022/08/21 06:56:14;;;;;;;3.00;2.70;;;;;;;17.17;95.91;99780.58;2066235;84;21132;-89
2022/08/21 06:59:15;;;;;;;3.80;2.37;;;;;;;17.15;95.58;99779.47;2071401;84;21524;-91
2022/08/21 07:02:17;;;;;;;2.90;2.55;;;;;;;17.13;95.75;99802.17;2056161;85;21090;-91
2022/08/21 07:05:18;;;;;;;2.40;2.20;;;;;;;17.10;96.55;99814.67;2045949;84;21222;-90
2022/08/21 07:08:20;;;;;;;2.35;2.15;;;;;;;17.08;95.93;99814.88;2087532;84;21135;-91
2022/08/21 07:11:24;;;;;;;3.70;2.17;;;;;;;17.09;96.87;99815.69;2076606;84;21078;-90
2022/08/21 07:14:25;;;;;;;3.08;2.05;;;;;;;17.08;96.59;99818.89;2092369;83;21030;-91
2022/08/21 07:17:26;;;;;;;2.35;1.80;;;;;;;17.06;96.24;99813.44;2129043;81;21024;-90
2022/08/21 07:20:30;;;;;;;2.00;1.75;;;;;;;17.06;96.26;99816.94;2105612;83;21009;-91
2022/08/21 07:23:36;;;;;;;4.75;2.20;;;;;;;17.06;96.47;99821.48;2117102;81;21109;-92
2022/08/21 07:26:38;;;;;;;2.30;2.10;;;;;;;17.05;96.14;99825.21;2108231;81;21205;-90
2022/08/21 07:29:39;;;;;;;4.42;2.12;;;;;;;17.06;96.27;99835.70;2112284;82;21010;-91
2022/08/21 07:32:40;;;;;;;3.05;2.72;;;;;;;17.05;96.27;99850.15;2118068;83;21414;-91
2022/08/21 07:35:42;;;;;;;3.70;2.72;;;;;;;16.99;95.79;99853.70;2101314;82;21020;-91
2022/08/21 07:38:43;;;;;;;5.60;3.72;;;;;;;16.84;94.68;99865.20;2106599;82;21432;-91
2022/08/21 07:41:44;;;;;;;5.85;3.92;;;;;;;16.72;94.41;99880.58;2134744;81;21045;-90
2022/08/21 07:44:45;;;;;;;4.47;4.08;;;;;;;16.62;94.20;99895.48;2113964;83;21112;-90
2022/08/21 07:47:47;;;;;;;5.28;4.28;;;;;;;16.51;94.16;99897.77;2115858;82;21002;-92
2022/08/21 07:50:49;;;;;;;9.70;4.85;;;;;;;16.42;94.89;99899.03;2095188;83;21096;-90
2022/08/21 07:53:52;;;;;;;6.75;4.75;;;;;;;16.35;94.67;99900.89;2125196;82;20968;-89
2022/08/21 07:56:55;;;;;;;5.58;4.62;;;;;;;16.31;94.96;99895.67;2124768;81;21061;-91
2022/08/21 07:59:58;;;;;;;7.17;5.00;;;;;;;16.24;95.22;99902.87;2137691;80;21045;-91
2022/08/21 08:03:02;;;;;;;6.78;5.08;;;;;;;16.21;95.02;99900.62;2100144;82;21023;-90
2022/08/21 08:06:04;;;;;;;10.30;5.17;;;;;;;16.20;95.05;99904.34;2114180;81;21515;-89
2022/08/21 08:09:06;;;;;;;6.42;5.30;;;;;;;16.17;95.26;99898.06;2045454;84;21035;-89
2022/08/21 08:12:09;;;;;;;6.10;5.05;;;;;;;16.14;95.02;99878.70;2060767;83;21095;-90
2022/08/21 08:15:15;;;;;;;11.65;5.58;;;;;;;16.11;95.37;99861.73;2049444;83;21086;-90
2022/08/21 08:18:17;;;;;;;5.55;4.08;;;;;;;16.10;95.24;99844.53;2085442;83;21115;-90
2022/08/21 08:21:20;;;;;;;7.47;4.10;;;;;;;16.00;94.80;99828.92;2081114;83;21034;-91
2022/08/21 08:24:21;;;;;;;7.60;4.45;;;;;;;15.93;94.66;99837.98;2076914;83;21556;-91
2022/08/21 08:27:22;;;;;;;7.67;4.10;;;;;;;15.83;94.21;99831.73;2045670;84;21422;-90
2022/08/21 08:30:23;;;;;;;7.33;4.20;;;;;;;15.76;94.13;99831.72;2069076;83;21063;-89
2022/08/21 08:33:25;;;;;;;7.12;3.80;;;;;;;15.68;94.27;99829.25;2066833;83;21070;-90
2022/08/21 08:36:34;;;;;;;5.00;3.55;;;;;;;15.63;94.22;99823.70;2069192;83;21076;-90
2022/08/21 08:39:35;;;;;;;6.10;3.75;;;;;;;15.57;94.21;99833.37;2084477;83;21095;-90
2022/08/21 08:42:37;;;;;;;5.90;3.98;;;;;;;15.56;94.24;99851.76;2082523;84;21058;-89
2022/08/21 08:45:42;;;;;;;5.10;3.67;;;;;;;15.57;94.40;99857.44;2069851;83;21046;-89
2022/08/21 08:48:55;;;;;;;6.25;3.45;;;;;;;15.58;94.14;99872.96;2079404;83;21189;-90
2022/08/21 08:52:05;;;;;;;3.95;3.45;;;;;;;15.64;94.29;99872.95;2056188;84;21063;-90
2022/08/21 08:55:14;;;;;;;3.80;3.33;;;;;;;15.68;94.32;99879.59;2078599;83;21045;-90
2022/08/21 08:58:34;;;;;;;3.25;2.67;;;;;;;15.76;94.33;99885.73;2064954;84;21520;-91
2022/08/21 09:01:33;;;;;;;4.70;2.80;;;;;;;15.82;94.38;99883.57;2047526;84;21552;-91
2022/08/21 09:04:34;;;;;;;3.02;2.70;;;;;;;15.87;94.14;99886.45;2055710;85;21055;-91
2022/08/21 09:07:47;;;;;;;3.05;2.75;;;;;;;15.84;93.58;99893.56;2068887;83;21077;-92
2022/08/21 09:11:12;;;;;;;2.40;2.20;;;;;;;15.84;93.71;99890.89;2066068;83;21027;-89
2022/08/21 09:14:37;;;;;;;3.55;2.40;;;;;;;15.81;93.57;99892.11;2102541;82;20998;-89
2022/08/21 09:22:19;;;;;;;2.92;2.25;;;;;;;15.84;93.35;99903.73;2081793;82;21173;-69
2022/08/21 09:25:28;;;;;;;2.10;1.90;;;;;;;15.86;93.31;99900.88;2057855;83;21601;-74
2022/08/21 09:28:38;;;;;;;2.47;2.00;;;;;;;15.86;93.42;99888.83;2065932;83;21028;-70
2022/08/21 09:31:42;;;;;;;1.70;1.60;;;;;;;15.88;93.28;99901.47;2075417;82;21005;-70
2022/08/21 09:35:11;;;;;;;2.35;2.15;;;;;;;15.89;93.28;99897.78;2069216;83;21114;-70
2022/08/21 09:38:18;;;;;;;2.02;1.92;;;;;;;15.89;93.25;99903.13;2022840;86;20988;-69
2022/08/21 09:41:32;;;;;;;3.80;2.37;;;;;;;15.84;93.03;99904.27;2018679;86;21059;-70
2022/08/21 09:44:46;;;;;;;2.37;2.05;;;;;;;15.85;93.10;99909.91;2090753;83;21604;-70
2022/08/21 09:47:46;;;;;;;2.17;1.90;;;;;;;15.90;93.31;99900.75;2094711;81;21062;-71
2022/08/21 09:50:52;;;;;;;2.42;1.95;;;;;;;15.92;93.12;99904.05;2072319;83;21015;-71
2022/08/21 09:54:11;;;;;;;3.92;2.00;;;;;;;15.96;93.12;99906.61;2097123;83;21074;-70
2022/08/21 09:57:38;;;;;;;2.15;1.82;;;;;;;15.98;93.03;99907.23;2093805;82;21628;-72
2022/08/21 10:00:39;;;;;;;1.82;1.72;;;;;;;15.99;92.81;99910.73;2102916;82;21008;-69
2022/08/21 10:03:40;;;;;;;2.47;2.17;;;;;;;15.99;92.79;99907.53;2098148;82;21094;-69
2022/08/21 10:06:44;;;;;;;6.15;2.00;;;;;;;15.98;92.78;99906.42;2080338;83;21032;-69
2022/08/21 10:09:53;;;;;;;2.27;2.08;;;;;;;15.97;92.79;99902.92;2080867;83;21060;-69
2022/08/21 10:13:19;;;;;;;3.20;2.00;;;;;;;15.99;92.77;99904.04;2097020;82;21017;-69
2022/08/21 10:16:51;;;;;;;2.30;1.90;;;;;;;15.97;92.80;99905.60;2085892;83;21113;-69
2022/08/21 10:20:06;;;;;;;2.17;2.08;;;;;;;15.97;92.76;99900.25;2093350;82;21079;-71
2022/08/21 10:23:47;;;;;;;2.22;2.12;;;;;;;15.99;92.69;99900.84;2109187;82;21071;-71
2022/08/21 10:27:17;;;;;;;4.90;2.02;;;;;;;16.08;93.03;99894.79;2107037;81;21119;-71
2022/08/21 10:30:56;;;;;;;1.82;1.72;;;;;;;16.14;93.03;99885.40;2109035;82;21075;-70
2022/08/21 10:34:20;;;;;;;2.87;1.92;;;;;;;16.18;92.86;99883.12;2088930;82;21039;-70
2022/08/21 10:41:26;;;;;;;2.47;2.22;;;;;;;16.13;92.41;99887.78;2091824;81;21042;-70
2022/08/21 10:44:38;;;;;;;3.67;2.10;;;;;;;16.07;92.29;99893.94;2117860;81;21059;-71
2022/08/21 10:47:57;;;;;;;2.30;2.10;;;;;;;16.00;91.96;99901.17;2111337;81;20984;-71
2022/08/21 10:51:16;;;;;;;2.83;2.42;;;;;;;15.99;91.84;99902.70;2128778;81;21030;-71
2022/08/21 10:54:31;;;;;;;2.17;1.77;;;;;;;15.93;91.66;99910.22;2120379;81;21050;-71
2022/08/21 10:57:53;;;;;;;2.92;2.40;;;;;;;15.91;91.69;99903.76;2117712;81;21579;-72
2022/08/21 11:01:23;;;;;;;4.47;2.40;;;;;;;15.88;91.65;99908.16;2125388;81;21067;-70
2022/08/21 11:04:42;;;;;;;2.90;2.22;;;;;;;15.86;91.53;99916.92;2126262;81;21089;-73
2022/08/21 11:07:52;;;;;;;3.42;2.42;;;;;;;15.84;91.47;99918.97;2089388;81;21518;-71
2022/08/21 11:10:59;;;;;;;5.17;2.58;;;;;;;15.86;91.54;99919.60;2110889;81;21111;-72
2022/08/21 11:14:29;;;;;;;7.12;2.60;;;;;;;15.88;91.24;99924.20;2100158;82;21075;-70
2022/08/21 11:17:44;;;;;;;4.50;2.17;;;;;;;15.91;91.19;99913.12;2096337;82;21078;-71
2022/08/21 11:21:21;;;;;;;3.05;2.45;;;;;;;15.93;91.16;99920.41;2093951;82;21033;-70
2022/08/21 11:25:05;;;;;;;4.55;2.90;;;;;;;15.90;90.82;99909.59;2081060;83;21091;-71
2022/08/21 11:28:27;;;;;;;4.42;2.65;;;;;;;15.84;90.49;99913.62;2073028;82;21042;-70
2022/08/21 11:31:43;;;;;;;3.15;2.83;;;;;;;15.86;90.80;99919.08;2092518;82;21564;-73
2022/08/21 11:34:59;;;;;;;3.52;2.60;;;;;;;15.86;90.56;99913.73;2092380;81;21732;-70
2022/08/21 11:38:41;;;;;;;4.03;2.37;;;;;;;15.90;90.69;99914.13;2091662;82;21094;-69
2022/08/21 11:42:21;;;;;;;2.62;2.40;;;;;;;15.91;90.58;99919.30;2103905;82;21137;-77
2022/08/21 11:45:43;;;;;;;6.73;3.37;;;;;;;15.97;90.57;99924.33;2103013;82;21070;-76
2022/08/21 11:49:09;;;;;;;4.85;2.98;;;;;;;15.99;90.23;99925.45;2098042;82;21068;-71
2022/08/21 11:52:38;;;;;;;5.10;3.22;;;;;;;15.98;89.93;99927.30;2088006;82;21083;-72
2022/08/21 11:56:05;;;;;;;5.50;3.22;;;;;;;15.99;89.67;99920.91;2112386;82;21117;-72
2022/08/21 11:59:24;;;;;;;4.12;3.17;;;;;;;16.03;89.57;99924.84;2119438;81;21074;-69
2022/08/21 12:02:34;;;;;;;5.33;3.35;;;;;;;16.09;89.69;99923.19;2120917;81;21035;-69
2022/08/21 12:05:45;;;;;;;4.37;3.10;;;;;;;16.20;90.05;99925.23;2128428;81;21069;-69
2022/08/21 12:08:54;;;;;;;6.67;2.92;;;;;;;16.26;89.75;99932.42;2125080;81;21182;-70
2022/08/21 12:12:29;;;;;;;5.25;3.08;;;;;;;16.32;89.85;99933.45;2116304;81;21069;-70
2022/08/21 12:15:34;;;;;;;4.92;3.17;;;;;;;16.33;89.54;99933.25;2109532;81;21007;-69
2022/08/21 12:18:37;;;;;;;4.15;3.00;;;;;;;16.35;89.35;99931.69;2093065;82;21499;-69
2022/08/21 12:21:55;;;;;;;5.05;2.70;;;;;;;16.36;89.41;99932.02;2085967;82;21541;-73
2022/08/21 12:25:05;;;;;;;4.65;2.98;;;;;;;16.39;89.33;99932.08;2088816;81;21379;-70
2022/08/21 12:28:14;;;;;;;4.50;3.30;;;;;;;16.39;89.26;99932.08;2127789;81;21046;-70
2022/08/21 12:31:26;;;;;;;5.83;3.67;;;;;;;16.40;89.31;99926.53;2112051;82;21035;-71
2022/08/21 12:34:38;;;;;;;5.28;3.37;;;;;;;16.42;89.33;99925.81;2118396;81;21076;-70
2022/08/21 12:37:51;;;;;;;8.30;3.72;;;;;;;16.44;89.19;99924.25;2136513;81;20963;-69
2022/08/21 12:41:08;;;;;;;5.40;2.87;;;;;;;16.44;89.30;99921.05;2123679;81;21003;-71
2022/08/21 12:44:14;;;;;;;6.95;3.45;;;;;;;16.45;89.24;99919.22;2131259;81;21073;-76
2022/08/21 12:47:39;;;;;;;6.87;3.58;;;;;;;16.43;89.19;99915.41;2138140;81;20999;-70
2022/08/21 12:51:18;;;;;;;7.22;4.20;;;;;;;16.42;89.22;99905.73;2127173;81;21082;-70
2022/08/21 12:54:28;;;;;;;6.83;3.90;;;;;;;16.34;89.10;99914.80;2129336;81;21191;-70
2022/08/21 12:57:35;;;;;;;5.75;4.35;;;;;;;16.32;89.19;99914.70;2136645;81;21107;-69
2022/08/21 13:00:37;;;;;;;6.03;3.90;;;;;;;16.27;89.05;99922.53;2127780;81;21601;-69
2022/08/21 13:03:41;;;;;;;5.60;3.75;;;;;;;16.24;89.13;99926.97;2118106;81;21036;-71
2022/08/21 13:06:51;;;;;;;6.15;4.05;;;;;;;16.25;89.35;99932.65;2113483;82;21039;-71
2022/08/21 13:10:00;;;;;;;8.03;3.80;;;;;;;16.25;89.00;99927.30;2105365;82;21008;-71
2022/08/21 13:13:06;;;;;;;6.12;4.22;;;;;;;16.27;89.10;99926.55;2108426;82;21034;-69
2022/08/21 13:16:09;;;;;;;7.55;4.42;;;;;;;16.33;89.11;99928.39;2105591;82;21082;-73
2022/08/21 13:19:15;;;;;;;5.87;4.00;;;;;;;16.39;88.93;99932.08;2101428;82;21078;-69
2022/08/21 13:22:18;;;;;;;7.58;4.10;;;;;;;16.45;88.87;99930.75;2122286;81;21537;-72
2022/08/21 13:25:43;;;;;;;6.08;3.50;;;;;;;16.47;88.67;99930.52;2113228;81;21042;-77
2022/08/21 13:28:39;;;;;;;5.37;4.12;;;;;;;16.46;88.64;99930.23;2127037;81;21110;-72
2022/08/21 13:31:47;;;;;;;6.58;4.35;;;;;;;16.49;88.68;99929.80;2087555;81;21058;-75
2022/08/21 13:34:54;;;;;;;7.25;4.15;;;;;;;16.52;88.71;99923.50;2080925;82;21636;-76
2022/08/21 13:37:56;;;;;;;6.00;4.28;;;;;;;16.54;88.50;99932.16;2115589;81;21019;-71
2022/08/21 13:41:06;;;;;;;7.28;4.22;;;;;;;16.53;88.60;99929.70;2084501;83;21079;-71
2022/08/21 13:44:26;;;;;;;6.75;4.50;;;;;;;16.54;88.69;99932.16;2060806;84;21083;-70
2022/08/21 13:47:27;;;;;;;7.08;4.65;;;;;;;16.53;88.66;99934.55;2073602;83;21064;-70
2022/08/21 13:50:37;;;;;;;6.70;4.45;;;;;;;16.53;88.74;99935.06;2119096;81;21473;-70
2022/08/21 13:53:51;;;;;;;8.53;4.35;;;;;;;16.56;88.94;99930.11;2121021;81;21563;-70
2022/08/21 13:56:58;;;;;;;6.85;3.80;;;;;;;16.57;88.84;99930.92;2094252;82;20986;-76
2022/08/21 14:00:18;;;;;;;4.45;3.98;;;;;;;16.56;88.88;99931.44;2081720;83;21108;-69
2022/08/21 14:03:43;;;;;;;8.80;5.08;;;;;;;16.57;88.94;99931.73;2094007;83;21074;-71
2022/08/21 14:06:48;;;;;;;7.65;4.45;;;;;;;16.55;89.02;99931.64;2103026;82;21112;-72
2022/08/21 14:09:53;;;;;;;7.05;4.95;;;;;;;16.53;89.17;99935.88;2106943;82;21073;-70
2022/08/21 14:13:04;;;;;;;7.67;4.58;;;;;;;16.54;89.27;99934.84;2117994;81;21113;-71
2022/08/21 14:16:25;;;;;;;5.72;4.47;;;;;;;16.53;89.25;99934.55;2109961;82;21055;-70
2022/08/21 14:19:41;;;;;;;5.75;4.22;;;;;;;16.55;89.38;99933.80;2106518;82;21050;-69
2022/08/21 14:22:46;;;;;;;5.80;4.37;;;;;;;16.56;89.46;99931.44;2102902;82;22250;-72
2022/08/21 14:25:48;;;;;;;6.45;5.10;;;;;;;16.58;89.53;99936.57;2132155;81;21482;-72
2022/08/21 14:28:51;;;;;;;10.85;4.35;;;;;;;16.57;89.59;99935.76;2111330;81;21054;-70
2022/08/21 14:32:00;;;;;;;6.85;5.10;;;;;;;16.62;89.69;99937.00;2134384;81;21025;-70
2022/08/21 14:35:02;;;;;;;6.50;4.95;;;;;;;16.63;89.68;99942.13;2128411;80;21075;-73
2022/08/21 14:38:21;;;;;;;9.60;4.72;;;;;;;16.63;89.71;99942.13;2088861;83;21544;-71
2022/08/21 14:41:27;;;;;;;8.50;5.08;;;;;;;16.66;89.82;99940.88;2094641;82;21103;-70
2022/08/21 14:44:29;;;;;;;8.20;5.10;;;;;;;16.67;89.76;99939.84;2097632;82;21015;-70
2022/08/21 14:47:30;;;;;;;7.03;4.78;;;;;;;16.67;89.84;99938.50;2093399;82;21509;-70
2022/08/21 14:50:37;;;;;;;5.67;4.72;;;;;;;16.68;89.91;99940.17;2085512;82;21066;-70